createdAt,value
2022-08-20T00:00:42.419Z,94859.78
2022-08-20T00:02:42.672Z,94862.84
2022-08-20T00:04:41.409Z,94859.34
2022-08-20T00:06:41.646Z,94859.19
2022-08-20T00:08:42.699Z,94855.09
2022-08-20T00:10:45.235Z,94844.44
2022-08-20T00:12:47.625Z,94848.97
2022-08-20T00:14:46.013Z,94855.31
2022-08-20T00:16:44.382Z,94857.59
2022-08-20T00:18:43.666Z,94863.44
2022-08-20T00:20:45.875Z,94863.31
2022-08-20T00:22:44.183Z,94860.56
2022-08-20T00:24:42.430Z,94846.91
2022-08-20T00:26:52.703Z,94847.44
2022-08-20T00:28:51.404Z,94859.94
2022-08-20T00:30:50.427Z,94854.09
2022-08-20T00:32:52.121Z,94846.41
2022-08-20T00:34:50.335Z,94846.91
2022-08-20T00:36:48.676Z,94849.50
2022-08-20T00:38:48.064Z,94842.69
2022-08-20T00:40:50.495Z,94849.59
2022-08-20T00:42:52.598Z,94856.03
2022-08-20T00:44:51.033Z,94853.00
2022-08-20T00:46:50.418Z,94845.50
2022-08-20T00:48:50.910Z,94845.25
2022-08-20T00:50:49.751Z,94843.84
2022-08-20T00:52:52.042Z,94835.41
2022-08-20T00:54:54.538Z,94838.38
2022-08-20T00:56:58.107Z,94834.50
2022-08-20T00:58:58.082Z,94838.34
2022-08-20T01:00:57.055Z,94836.78
2022-08-20T01:02:56.602Z,94831.09
2022-08-20T01:04:55.951Z,94822.28
2022-08-20T01:06:54.163Z,94829.47
2022-08-20T01:08:52.654Z,94815.72
2022-08-20T01:10:53.877Z,94817.16
2022-08-20T01:12:59.068Z,94819.59
2022-08-20T01:15:01.903Z,94815.38
2022-08-20T01:17:03.483Z,94814.22
2022-08-20T01:19:03.124Z,94821.91
2022-08-20T01:21:25.268Z,94814.72
2022-08-20T01:23:30.333Z,94818.88
2022-08-20T01:25:36.276Z,94811.53
2022-08-20T01:27:42.442Z,94812.34
2022-08-20T01:29:42.025Z,94806.66
2022-08-20T01:31:42.211Z,94820.78
2022-08-20T01:33:40.719Z,94822.06
2022-08-20T01:35:42.357Z,94815.50
2022-08-20T01:37:40.692Z,94805.47
2022-08-20T01:39:39.124Z,94815.34
2022-08-20T01:41:56.903Z,94811.63
2022-08-20T01:43:58.395Z,94817.00
2022-08-20T01:45:56.976Z,94812.63
2022-08-20T01:47:55.482Z,94801.03
2022-08-20T01:49:59.925Z,94800.28
2022-08-20T01:52:02.310Z,94792.47
2022-08-20T01:54:00.944Z,94787.16
2022-08-20T01:55:59.108Z,94795.59
2022-08-20T01:57:58.256Z,94798.59
2022-08-20T01:59:57.870Z,94797.09
2022-08-20T02:01:56.977Z,94803.06
2022-08-20T02:03:56.409Z,94806.50
2022-08-20T02:05:54.696Z,94792.84
2022-08-20T02:07:53.043Z,94801.69
2022-08-20T02:09:51.996Z,94800.06
2022-08-20T02:11:50.826Z,94801.13
2022-08-20T02:13:52.360Z,94800.00
2022-08-20T02:15:52.238Z,94796.34
2022-08-20T02:17:50.540Z,94788.88
2022-08-20T02:19:52.609Z,94790.88
2022-08-20T02:21:54.424Z,94795.06
2022-08-20T02:23:52.787Z,94793.88
2022-08-20T02:25:51.570Z,94784.91
2022-08-20T02:27:50.286Z,94790.50
2022-08-20T02:29:48.629Z,94792.47
2022-08-20T02:32:32.190Z,94791.41
2022-08-20T02:34:14.815Z,94795.88
2022-08-20T02:36:21.633Z,94798.88
2022-08-20T02:38:19.945Z,94791.94
2022-08-20T02:40:27.373Z,94789.78
2022-08-20T02:42:29.619Z,94790.09
2022-08-20T02:44:27.894Z,94789.03
2022-08-20T02:46:26.646Z,94782.84
2022-08-20T02:48:27.083Z,94790.66
2022-08-20T02:50:27.727Z,94791.28
2022-08-20T02:52:26.355Z,94797.91
2022-08-20T02:54:24.612Z,94792.97
2022-08-20T02:56:23.028Z,94799.88
2022-08-20T02:58:21.648Z,94789.81
2022-08-20T03:00:22.812Z,94798.78
2022-08-20T03:02:21.736Z,94812.44
2022-08-20T03:04:21.756Z,94804.97
2022-08-20T03:06:24.663Z,94811.97
2022-08-20T03:08:24.420Z,94815.75
2022-08-20T03:10:24.953Z,94813.06
2022-08-20T03:12:23.197Z,94812.34
2022-08-20T03:14:21.466Z,94811.41
2022-08-20T03:16:19.950Z,94806.19
2022-08-20T03:18:19.891Z,94809.75
2022-08-20T03:20:23.751Z,94801.63
2022-08-20T03:22:22.157Z,94808.84
2022-08-20T03:24:21.058Z,94803.91
2022-08-20T03:26:19.270Z,94809.81
2022-08-20T03:28:17.981Z,94812.94
2022-08-20T03:30:18.233Z,94814.63
2022-08-20T03:32:16.506Z,94808.56
2022-08-20T03:34:14.726Z,94808.41
2022-08-20T03:36:14.565Z,94812.69
2022-08-20T03:38:21.537Z,94818.09
2022-08-20T03:40:34.793Z,94816.22
2022-08-20T03:42:33.222Z,94813.00
2022-08-20T03:44:31.491Z,94820.91
2022-08-20T03:46:29.813Z,94816.81
2022-08-20T03:48:28.905Z,94825.84
2022-08-20T03:50:30.388Z,94827.72
2022-08-20T03:52:30.318Z,94827.19
2022-08-20T03:54:31.575Z,94840.13
2022-08-20T03:56:30.670Z,94826.47
2022-08-20T03:58:35.235Z,94837.53
2022-08-20T04:00:37.173Z,94825.97
2022-08-20T04:02:35.570Z,94831.66
2022-08-20T04:04:33.968Z,94830.56
2022-08-20T04:06:32.463Z,94824.56
2022-08-20T04:08:32.135Z,94832.75
2022-08-20T04:10:30.660Z,94828.38
2022-08-20T04:12:29.308Z,94827.66
2022-08-20T04:14:27.534Z,94834.78
2022-08-20T04:16:27.727Z,94838.84
2022-08-20T04:18:27.259Z,94833.00
2022-08-20T04:20:26.867Z,94836.88
2022-08-20T04:22:27.937Z,94840.88
2022-08-20T04:24:32.151Z,94832.09
2022-08-20T04:26:31.712Z,94839.88
2022-08-20T04:28:30.345Z,94834.09
2022-08-20T04:30:29.837Z,94838.03
2022-08-20T04:32:28.109Z,94842.38
2022-08-20T04:34:26.459Z,94838.50
2022-08-20T04:36:24.756Z,94840.22
2022-08-20T04:38:24.540Z,94839.50
2022-08-20T04:40:42.230Z,94836.75
2022-08-20T04:42:41.262Z,94836.38
2022-08-20T04:44:41.840Z,94836.63
2022-08-20T04:46:41.231Z,94838.03
2022-08-20T04:48:40.699Z,94838.38
2022-08-20T04:50:40.463Z,94843.03
2022-08-20T04:52:39.134Z,94839.38
2022-08-20T04:54:37.412Z,94840.28
2022-08-20T04:56:39.005Z,94838.31
2022-08-20T04:58:39.656Z,94833.97
2022-08-20T05:00:38.769Z,94826.84
2022-08-20T05:02:38.019Z,94830.56
2022-08-20T05:04:37.644Z,94842.72
2022-08-20T05:06:35.987Z,94842.03
2022-08-20T05:08:35.732Z,94837.16
2022-08-20T05:10:34.806Z,94839.53
2022-08-20T05:12:34.611Z,94843.41
2022-08-20T05:14:34.191Z,94843.94
2022-08-20T05:16:38.000Z,94831.66
2022-08-20T05:18:39.724Z,94836.81
2022-08-20T05:20:40.378Z,94839.69
2022-08-20T05:22:39.535Z,94833.25
2022-08-20T05:24:37.875Z,94840.97
2022-08-20T05:26:36.129Z,94836.56
2022-08-20T05:28:57.210Z,94832.91
2022-08-20T05:30:55.513Z,94835.94
2022-08-20T05:32:53.726Z,94838.13
2022-08-20T05:34:51.958Z,94834.19
2022-08-20T05:36:53.090Z,94828.44
2022-08-20T05:38:54.847Z,94827.84
2022-08-20T05:40:53.486Z,94829.19
2022-08-20T05:42:53.817Z,94820.50
2022-08-20T05:44:53.527Z,94818.56
2022-08-20T05:46:51.921Z,94817.25
2022-08-20T05:48:50.550Z,94821.75
2022-08-20T05:50:51.630Z,94835.25
2022-08-20T05:52:50.254Z,94833.34
2022-08-20T05:54:50.229Z,94831.91
2022-08-20T05:56:48.708Z,94823.63
2022-08-20T05:58:46.925Z,94819.63
2022-08-20T06:00:47.628Z,94813.97
2022-08-20T06:03:03.346Z,94812.06
2022-08-20T06:05:01.730Z,94807.03
2022-08-20T06:07:05.598Z,94810.50
2022-08-20T06:09:05.550Z,94805.22
2022-08-20T06:11:04.546Z,94810.63
2022-08-20T06:13:03.612Z,94816.56
2022-08-20T06:15:02.268Z,94814.94
2022-08-20T06:17:07.447Z,94820.06
2022-08-20T06:19:05.711Z,94823.91
2022-08-20T06:21:04.146Z,94820.50
2022-08-20T06:23:02.594Z,94824.50
2022-08-20T06:25:01.188Z,94825.88
2022-08-20T06:27:00.402Z,94827.25
2022-08-20T06:28:59.211Z,94829.91
2022-08-20T06:30:57.452Z,94817.44
2022-08-20T06:32:57.177Z,94821.91
2022-08-20T06:34:55.385Z,94819.84
2022-08-20T06:36:53.940Z,94821.69
2022-08-20T06:38:55.158Z,94812.09
2022-08-20T06:40:53.446Z,94814.69
2022-08-20T06:42:52.777Z,94817.09
2022-08-20T06:44:51.466Z,94811.59
2022-08-20T06:46:49.887Z,94811.47
2022-08-20T06:48:49.781Z,94807.63
2022-08-20T06:50:48.838Z,94813.09
2022-08-20T06:52:52.842Z,94809.69
2022-08-20T06:54:51.789Z,94802.03
2022-08-20T06:56:50.566Z,94798.75
2022-08-20T06:58:49.533Z,94803.53
2022-08-20T07:00:49.051Z,94803.66
2022-08-20T07:02:48.250Z,94807.72
2022-08-20T07:04:48.179Z,94801.91
2022-08-20T07:06:46.572Z,94794.34
2022-08-20T07:08:45.841Z,94795.81
2022-08-20T07:10:44.454Z,94789.75
2022-08-20T07:12:42.902Z,94786.94
2022-08-20T07:14:44.324Z,94777.16
2022-08-20T07:16:42.965Z,94783.34
2022-08-20T07:18:41.360Z,94778.97
2022-08-20T07:20:41.724Z,94777.34
2022-08-20T07:22:40.056Z,94784.41
2022-08-20T07:24:41.155Z,94774.91
2022-08-20T07:26:40.495Z,94774.03
2022-08-20T07:28:38.902Z,94783.25
2022-08-20T07:30:56.722Z,94779.00
2022-08-20T07:32:57.500Z,94774.13
2022-08-20T07:34:56.731Z,94772.44
2022-08-20T07:36:59.984Z,94778.34
2022-08-20T07:38:58.668Z,94766.53
2022-08-20T07:40:58.941Z,94768.47
2022-08-20T07:42:58.706Z,94775.03
2022-08-20T07:44:56.929Z,94768.34
2022-08-20T07:46:55.096Z,94760.72
2022-08-20T07:48:53.517Z,94779.72
2022-08-20T07:50:51.785Z,94767.16
2022-08-20T07:52:54.867Z,94775.66
2022-08-20T07:54:53.118Z,94774.78
2022-08-20T07:56:51.430Z,94766.75
2022-08-20T07:58:52.649Z,94769.19
2022-08-20T08:00:51.101Z,94770.34
2022-08-20T08:02:50.417Z,94774.47
2022-08-20T08:04:48.892Z,94768.88
2022-08-20T08:06:47.163Z,94767.84
2022-08-20T08:08:47.198Z,94768.53
2022-08-20T08:10:48.161Z,94775.56
2022-08-20T08:13:02.002Z,94769.19
2022-08-20T08:16:13.436Z,94770.09
2022-08-20T08:18:44.913Z,94760.91
2022-08-20T08:20:54.166Z,94764.88
2022-08-20T08:22:53.888Z,94756.16
2022-08-20T08:24:57.366Z,94759.47
2022-08-20T08:26:56.057Z,94751.16
2022-08-20T08:28:54.788Z,94752.47
2022-08-20T08:30:53.031Z,94755.66
2022-08-20T08:33:08.739Z,94756.81
2022-08-20T08:35:09.132Z,94753.53
2022-08-20T08:37:07.676Z,94754.38
2022-08-20T08:39:06.498Z,94752.19
2022-08-20T08:41:18.039Z,94739.09
2022-08-20T08:43:21.181Z,94731.53
2022-08-20T08:45:20.719Z,94739.19
2022-08-20T08:47:25.586Z,94734.53
2022-08-20T08:49:33.920Z,94731.16
2022-08-20T08:51:41.863Z,94736.03
2022-08-20T08:53:43.513Z,94719.88
2022-08-20T08:55:41.988Z,94720.00
2022-08-20T08:57:42.179Z,94716.22
2022-08-20T08:59:52.389Z,94720.81
2022-08-20T09:02:02.790Z,94715.84
2022-08-20T09:04:05.545Z,94713.38
2022-08-20T09:06:04.758Z,94716.03
2022-08-20T09:08:06.803Z,94712.03
2022-08-20T09:10:07.317Z,94707.75
2022-08-20T09:12:07.985Z,94708.25
2022-08-20T09:14:07.717Z,94711.16
2022-08-20T09:16:06.429Z,94707.16
2022-08-20T09:18:05.109Z,94705.72
2022-08-20T09:20:03.646Z,94708.81
2022-08-20T09:22:08.634Z,94711.69
2022-08-20T09:24:07.248Z,94716.53
2022-08-20T09:26:05.705Z,94711.94
2022-08-20T09:28:04.324Z,94710.44
2022-08-20T09:30:06.093Z,94711.19
2022-08-20T09:32:09.246Z,94709.00
2022-08-20T09:34:07.679Z,94706.81
2022-08-20T09:36:31.731Z,94699.44
2022-08-20T09:38:24.777Z,94693.78
2022-08-20T09:40:23.673Z,94688.97
2022-08-20T09:42:25.083Z,94686.44
2022-08-20T09:44:23.342Z,94695.50
2022-08-20T09:46:27.343Z,94696.69
2022-08-20T09:48:31.949Z,94692.03
2022-08-20T09:50:33.081Z,94689.84
2022-08-20T09:52:38.967Z,94702.66
2022-08-20T09:54:46.178Z,94685.59
2022-08-20T09:56:45.050Z,94683.09
2022-08-20T09:58:49.714Z,94681.63
2022-08-20T10:00:48.341Z,94686.34
2022-08-20T10:02:48.665Z,94685.78
2022-08-20T10:04:47.016Z,94692.06
2022-08-20T10:06:47.009Z,94689.22
2022-08-20T10:08:45.435Z,94694.44
2022-08-20T10:10:43.859Z,94690.19
2022-08-20T10:12:43.291Z,94692.97
2022-08-20T10:14:41.521Z,94684.34
2022-08-20T10:16:39.815Z,94679.16
2022-08-20T10:18:39.749Z,94680.47
2022-08-20T10:20:38.197Z,94677.56
2022-08-20T10:22:36.790Z,94678.69
2022-08-20T10:24:35.917Z,94672.19
2022-08-20T10:26:34.149Z,94674.97
2022-08-20T10:28:32.557Z,94672.84
2022-08-20T10:30:32.971Z,94668.44
2022-08-20T10:32:31.318Z,94659.53
2022-08-20T10:34:30.971Z,94658.56
2022-08-20T10:36:29.265Z,94665.81
2022-08-20T10:38:27.690Z,94659.84
2022-08-20T10:40:26.302Z,94662.63
2022-08-20T10:42:24.971Z,94658.03
2022-08-20T10:44:23.254Z,94657.84
2022-08-20T10:46:21.520Z,94652.16
2022-08-20T10:48:21.624Z,94655.75
2022-08-20T10:50:21.825Z,94645.69
2022-08-20T10:52:20.481Z,94649.16
2022-08-20T10:54:18.657Z,94652.28
2022-08-20T10:56:16.823Z,94649.44
2022-08-20T10:58:15.316Z,94640.50
2022-08-20T11:00:16.813Z,94645.53
2022-08-20T11:02:15.931Z,94643.50
2022-08-20T11:04:14.140Z,94648.28
2022-08-20T11:06:13.840Z,94638.25
2022-08-20T11:08:12.092Z,94642.69
2022-08-20T11:10:13.800Z,94647.28
2022-08-20T11:12:12.577Z,94636.16
2022-08-20T11:14:10.967Z,94637.72
2022-08-20T11:16:09.151Z,94626.22
2022-08-20T11:18:07.747Z,94630.06
2022-08-20T11:20:08.051Z,94633.31
2022-08-20T11:22:07.832Z,94627.84
2022-08-20T11:24:06.656Z,94617.41
2022-08-20T11:26:04.835Z,94617.00
2022-08-20T11:28:03.714Z,94615.19
2022-08-20T11:30:02.107Z,94612.22
2022-08-20T11:32:00.493Z,94603.75
2022-08-20T11:33:58.798Z,94604.59
2022-08-20T11:35:57.156Z,94590.56
2022-08-20T11:37:58.541Z,94599.28
2022-08-20T11:39:57.284Z,94594.66
2022-08-20T11:41:55.795Z,94589.25
2022-08-20T11:44:17.421Z,94584.22
2022-08-20T11:46:12.607Z,94584.16
2022-08-20T11:48:10.928Z,94583.84
2022-08-20T11:50:11.801Z,94583.31
2022-08-20T11:52:10.110Z,94579.88
2022-08-20T11:54:10.272Z,94583.94
2022-08-20T11:56:10.076Z,94578.91
2022-08-20T11:58:12.611Z,94587.81
2022-08-20T12:00:14.582Z,94594.84
2022-08-20T12:02:12.825Z,94592.72
2022-08-20T12:04:11.229Z,94597.97
2022-08-20T12:06:09.570Z,94590.78
2022-08-20T12:08:08.481Z,94592.00
2022-08-20T12:10:10.187Z,94591.84
2022-08-20T12:12:09.360Z,94588.88
2022-08-20T12:14:08.431Z,94589.44
2022-08-20T12:16:07.264Z,94590.53
2022-08-20T12:18:08.109Z,94596.22
2022-08-20T12:20:09.585Z,94590.25
2022-08-20T12:22:23.125Z,94592.16
2022-08-20T12:24:23.649Z,94599.25
2022-08-20T12:26:23.505Z,94603.59
2022-08-20T12:28:25.124Z,94607.16
2022-08-20T12:30:25.738Z,94607.44
2022-08-20T12:32:26.574Z,94605.56
2022-08-20T12:34:24.963Z,94602.53
2022-08-20T12:36:23.354Z,94612.06
2022-08-20T12:38:21.745Z,94612.03
2022-08-20T12:40:31.741Z,94619.47
2022-08-20T12:42:32.642Z,94620.78
2022-08-20T12:44:31.523Z,94620.19
2022-08-20T12:46:29.892Z,94625.06
2022-08-20T12:48:28.433Z,94629.50
2022-08-20T12:50:31.305Z,94638.09
2022-08-20T12:52:31.744Z,94634.38
2022-08-20T12:54:30.018Z,94628.66
2022-08-20T12:56:28.372Z,94627.69
2022-08-20T12:58:28.081Z,94622.34
2022-08-20T13:00:30.095Z,94622.38
2022-08-20T13:02:28.917Z,94621.22
2022-08-20T13:04:27.181Z,94627.97
2022-08-20T13:06:25.580Z,94627.94
2022-08-20T13:08:23.799Z,94624.16
2022-08-20T13:10:25.081Z,94612.38
2022-08-20T13:12:23.471Z,94599.25
2022-08-20T13:14:23.928Z,94589.25
2022-08-20T13:16:22.411Z,94573.94
2022-08-20T13:18:21.291Z,94580.38
2022-08-20T13:20:20.196Z,94572.63
2022-08-20T13:22:18.329Z,94574.56
2022-08-20T13:24:16.749Z,94583.31
2022-08-20T13:26:15.337Z,94588.88
2022-08-20T13:28:13.702Z,94602.00
2022-08-20T13:30:16.997Z,94609.97
2022-08-20T13:32:15.456Z,94621.34
2022-08-20T13:34:13.854Z,94631.97
2022-08-20T13:36:12.360Z,94635.19
2022-08-20T13:38:10.665Z,94627.34
2022-08-20T13:40:10.872Z,94621.25
2022-08-20T13:42:10.270Z,94619.94
2022-08-20T13:44:08.531Z,94634.00
2022-08-20T13:46:08.290Z,94647.56
2022-08-20T13:48:09.092Z,94674.16
2022-08-20T13:50:15.661Z,94693.47
2022-08-20T13:52:16.996Z,94688.19
2022-08-20T13:54:15.468Z,94704.38
2022-08-20T13:56:15.275Z,94716.69
2022-08-20T13:58:13.669Z,94723.28
2022-08-20T14:00:15.168Z,94746.88
2022-08-20T14:02:16.227Z,94750.34
2022-08-20T14:04:14.459Z,94753.91
2022-08-20T14:06:12.687Z,94737.06
2022-08-20T14:08:13.436Z,94732.41
2022-08-20T14:10:16.207Z,94723.47
2022-08-20T14:12:15.918Z,94744.25
2022-08-20T14:14:14.194Z,94775.00
2022-08-20T14:16:21.210Z,94788.00
2022-08-20T14:18:25.274Z,94809.19
2022-08-20T14:20:29.278Z,94819.81
2022-08-20T14:22:28.189Z,94822.31
2022-08-20T14:24:26.535Z,94828.53
2022-08-20T14:26:26.217Z,94826.47
2022-08-20T14:28:25.918Z,94815.78
2022-08-20T14:30:27.222Z,94811.72
2022-08-20T14:32:25.545Z,94816.56
2022-08-20T14:34:25.391Z,94823.16
2022-08-20T14:36:23.740Z,94836.94
2022-08-20T14:38:24.625Z,94830.91
2022-08-20T14:40:28.216Z,94848.34
2022-08-20T14:42:28.192Z,94856.22
2022-08-20T14:44:26.509Z,94858.31
2022-08-20T14:46:25.057Z,94851.28
2022-08-20T14:48:28.194Z,94861.72
2022-08-20T14:50:30.066Z,94868.78
2022-08-20T14:52:28.305Z,94849.03
2022-08-20T14:54:26.890Z,94839.19
2022-08-20T14:56:25.290Z,94809.34
2022-08-20T14:58:23.628Z,94762.81
2022-08-20T15:00:26.287Z,94734.19
2022-08-20T15:02:24.825Z,94709.66
2022-08-20T15:04:24.445Z,94680.66
2022-08-20T15:06:25.156Z,94655.00
2022-08-20T15:08:23.813Z,94648.88
2022-08-20T15:10:29.989Z,94650.03
2022-08-20T15:12:29.372Z,94665.56
2022-08-20T15:14:28.763Z,94683.66
2022-08-20T15:16:28.474Z,94690.63
2022-08-20T15:18:29.342Z,94718.78
2022-08-20T15:20:31.080Z,94718.19
2022-08-20T15:22:30.815Z,94720.59
2022-08-20T15:24:29.047Z,94729.28
2022-08-20T15:26:27.402Z,94727.41
2022-08-20T15:28:25.708Z,94695.16
2022-08-20T15:30:25.824Z,94692.47
2022-08-20T15:32:23.999Z,94692.31
2022-08-20T15:34:22.299Z,94678.94
2022-08-20T15:36:20.990Z,94671.34
2022-08-20T15:38:20.739Z,94672.38
2022-08-20T15:40:25.747Z,94681.63
2022-08-20T15:42:25.963Z,94682.84
2022-08-20T15:44:24.306Z,94673.41
2022-08-20T15:46:22.504Z,94663.56
2022-08-20T15:48:22.972Z,94654.09
2022-08-20T15:50:53.972Z,94653.28
2022-08-20T15:52:52.838Z,94638.63
2022-08-20T15:54:54.981Z,94621.53
2022-08-20T15:57:01.693Z,94614.91
2022-08-20T15:59:14.369Z,94615.28
2022-08-20T16:01:25.185Z,94594.03
2022-08-20T16:03:49.761Z,94574.97
2022-08-20T16:05:58.114Z,94537.09
2022-08-20T16:08:08.948Z,94531.28
2022-08-20T16:10:17.221Z,94521.72
2022-08-20T16:12:21.256Z,94523.00
2022-08-20T16:14:23.299Z,94543.78
2022-08-20T16:16:27.869Z,94571.47
2022-08-20T16:18:29.082Z,94571.34
2022-08-20T16:20:35.875Z,94569.00
2022-08-20T16:22:34.369Z,94549.91
2022-08-20T16:24:33.576Z,94538.03
2022-08-20T16:26:54.607Z,94536.91
2022-08-20T16:29:03.505Z,94536.53
2022-08-20T16:31:06.588Z,94551.78
2022-08-20T16:33:15.401Z,94559.66
2022-08-20T16:35:35.584Z,94572.97
2022-08-20T16:37:41.255Z,94586.50
2022-08-20T16:39:50.130Z,94586.94
2022-08-20T16:41:55.543Z,94610.88
2022-08-20T16:43:57.260Z,94613.84
2022-08-20T16:46:00.444Z,94628.22
2022-08-20T16:48:02.410Z,94622.59
2022-08-20T16:50:03.789Z,94623.03
2022-08-20T16:52:02.789Z,94623.41
2022-08-20T16:54:01.012Z,94623.56
2022-08-20T16:55:59.307Z,94621.53
2022-08-20T16:57:59.432Z,94630.38
2022-08-20T17:00:12.012Z,94650.16
2022-08-20T17:02:12.678Z,94652.88
2022-08-20T17:04:21.644Z,94666.44
2022-08-20T17:06:27.242Z,94699.59
2022-08-20T17:08:30.145Z,94704.94
2022-08-20T17:10:31.861Z,94718.44
2022-08-20T17:12:30.239Z,94727.97
2022-08-20T17:14:29.951Z,94736.41
2022-08-20T17:16:35.410Z,94740.50
2022-08-20T17:18:36.771Z,94725.16
2022-08-20T17:20:45.956Z,94723.91
2022-08-20T17:22:47.961Z,94716.84
2022-08-20T17:24:46.317Z,94725.19
2022-08-20T17:26:47.792Z,94757.88
2022-08-20T17:28:51.290Z,94775.91
2022-08-20T17:30:51.688Z,94787.25
2022-08-20T17:32:57.365Z,94793.59
2022-08-20T17:34:58.834Z,94812.53
2022-08-20T17:37:00.574Z,94841.16
2022-08-20T17:39:00.534Z,94858.84
2022-08-20T17:41:01.158Z,94848.84
2022-08-20T17:43:02.763Z,94847.81
2022-08-20T17:45:07.071Z,94856.00
2022-08-20T17:47:12.790Z,94862.81
2022-08-20T17:49:16.285Z,94871.66
2022-08-20T17:51:18.743Z,94881.91
2022-08-20T17:53:23.698Z,94886.63
2022-08-20T17:55:23.524Z,94890.13
2022-08-20T17:57:29.301Z,94906.41
2022-08-20T18:00:00.305Z,94911.13
2022-08-20T18:01:51.023Z,94920.94
2022-08-20T18:03:52.946Z,94927.97
2022-08-20T18:05:57.828Z,94921.56
2022-08-20T18:08:08.618Z,94923.63
2022-08-20T18:10:10.991Z,94939.09
2022-08-20T18:12:33.498Z,94943.47
2022-08-20T18:14:47.268Z,94951.50
2022-08-20T18:16:57.303Z,94954.38
2022-08-20T18:19:05.203Z,94951.09
2022-08-20T18:21:16.528Z,94955.41
2022-08-20T18:23:20.408Z,94964.47
2022-08-20T18:25:29.808Z,94959.34
2022-08-20T18:27:34.562Z,94958.50
2022-08-20T18:29:37.034Z,94960.56
2022-08-20T18:31:43.731Z,94975.63
2022-08-20T18:33:44.373Z,94977.25
2022-08-20T18:35:46.357Z,94990.38
2022-08-20T18:37:46.137Z,94990.09
2022-08-20T18:39:46.873Z,95001.59
2022-08-20T18:41:58.331Z,94992.13
2022-08-20T18:44:05.292Z,94992.91
2022-08-20T18:46:16.091Z,94991.22
2022-08-20T18:48:23.318Z,94989.34
2022-08-20T18:50:26.586Z,94995.06
2022-08-20T18:52:32.828Z,94979.06
2022-08-20T18:54:34.110Z,94977.63
2022-08-20T18:56:38.671Z,94974.28
2022-08-20T18:58:49.024Z,94977.13
2022-08-20T19:00:52.609Z,94975.47
2022-08-20T19:02:58.361Z,94955.53
2022-08-20T19:05:02.468Z,94961.66
2022-08-20T19:07:05.366Z,94969.28
2022-08-20T19:09:12.025Z,94980.06
2022-08-20T19:11:26.781Z,94988.03
2022-08-20T19:14:01.366Z,94984.66
2022-08-20T19:16:05.718Z,94980.47
2022-08-20T19:18:09.659Z,94986.28
2022-08-20T19:20:11.688Z,94984.78
2022-08-20T19:22:13.734Z,94990.56
2022-08-20T19:24:17.025Z,94995.13
2022-08-20T19:26:25.381Z,94970.56
2022-08-20T19:28:29.374Z,94971.75
2022-08-20T19:30:34.581Z,94971.00
2022-08-20T19:32:35.561Z,94963.31
2022-08-20T19:34:33.763Z,94967.75
2022-08-20T19:36:32.982Z,94959.84
2022-08-20T19:38:31.136Z,94961.31
2022-08-20T19:40:35.167Z,94945.03
2022-08-20T19:42:46.644Z,94939.84
2022-08-20T19:44:50.278Z,94957.31
2022-08-20T19:46:48.760Z,94968.06
2022-08-20T19:49:00.197Z,94974.91
2022-08-20T19:51:28.804Z,94989.69
2022-08-20T19:53:31.015Z,94970.63
2022-08-20T19:55:36.596Z,94964.03
2022-08-20T19:57:38.129Z,94951.47
2022-08-20T19:59:36.584Z,94952.94
2022-08-20T20:01:37.082Z,94954.41
2022-08-20T20:03:38.915Z,94939.25
2022-08-20T20:05:37.314Z,94944.78
2022-08-20T20:07:39.876Z,94939.81
2022-08-20T20:09:42.255Z,94934.41
2022-08-20T20:11:49.878Z,94930.09
2022-08-20T20:13:48.644Z,94930.25
2022-08-20T20:15:57.280Z,94934.16
2022-08-20T20:17:55.820Z,94933.75
2022-08-20T20:19:59.210Z,94929.81
2022-08-20T20:22:11.946Z,94936.63
2022-08-20T20:24:25.331Z,94934.69
2022-08-20T20:26:24.337Z,94937.28
2022-08-20T20:28:27.314Z,94926.78
2022-08-20T20:30:30.186Z,94927.69
2022-08-20T20:32:30.509Z,94943.28
2022-08-20T20:34:31.751Z,94948.06
2022-08-20T20:36:35.086Z,94947.06
2022-08-20T20:38:33.562Z,94937.03
2022-08-20T20:40:36.111Z,94940.06
2022-08-20T20:42:36.724Z,94935.84
2022-08-20T20:44:43.297Z,94931.81
2022-08-20T20:46:41.666Z,94922.53
2022-08-20T20:48:48.367Z,94910.06
2022-08-20T20:50:48.365Z,94898.50
2022-08-20T20:52:56.808Z,94885.66
2022-08-20T20:55:09.328Z,94883.38
2022-08-20T20:57:11.127Z,94859.63
2022-08-20T20:59:11.117Z,94854.78
2022-08-20T21:01:10.960Z,94845.03
2022-08-20T21:03:09.209Z,94838.03
2022-08-20T21:05:08.223Z,94838.03
2022-08-20T21:07:08.888Z,94824.28
2022-08-20T21:09:07.180Z,94825.84
2022-08-20T21:11:05.386Z,94821.22
2022-08-20T21:13:04.140Z,94815.56
2022-08-20T21:15:06.247Z,94803.91
2022-08-20T21:17:08.258Z,94792.06
2022-08-20T21:19:07.654Z,94787.47
2022-08-20T21:21:06.619Z,94786.34
2022-08-20T21:23:08.560Z,94788.78
2022-08-20T21:25:08.563Z,94783.47
2022-08-20T21:27:10.103Z,94774.09
2022-08-20T21:29:14.681Z,94765.94
2022-08-20T21:31:13.148Z,94754.19
2022-08-20T21:33:12.746Z,94751.88
2022-08-20T21:35:12.266Z,94754.56
2022-08-20T21:37:10.638Z,94746.22
2022-08-20T21:39:08.873Z,94741.53
2022-08-20T21:41:07.147Z,94742.50
2022-08-20T21:43:06.133Z,94743.31
2022-08-20T21:45:04.765Z,94746.22
2022-08-20T21:47:03.215Z,94753.66
2022-08-20T21:49:03.101Z,94746.94
2022-08-20T21:51:01.345Z,94748.78
2022-08-20T21:53:00.229Z,94743.63
2022-08-20T21:54:58.715Z,94738.31
2022-08-20T21:57:00.243Z,94730.63
2022-08-20T21:59:00.766Z,94734.91
2022-08-20T22:01:01.786Z,94728.34
2022-08-20T22:02:59.967Z,94750.06
2022-08-20T22:04:59.801Z,94767.25
2022-08-20T22:06:58.106Z,94762.97
2022-08-20T22:08:56.332Z,94763.94
2022-08-20T22:10:55.212Z,94764.41
2022-08-20T22:12:53.488Z,94762.97
2022-08-20T22:14:52.280Z,94768.72
2022-08-20T22:16:50.650Z,94763.91
2022-08-20T22:18:50.071Z,94765.13
2022-08-20T22:20:49.736Z,94764.59
2022-08-20T22:22:48.063Z,94778.59
2022-08-20T22:24:46.866Z,94771.34
2022-08-20T22:26:45.198Z,94779.38
2022-08-20T22:28:43.683Z,94781.91
2022-08-20T22:30:42.681Z,94771.63
2022-08-20T22:32:51.486Z,94765.94
2022-08-20T22:34:59.617Z,94773.16
2022-08-20T22:37:00.526Z,94769.13
2022-08-20T22:38:58.786Z,94768.56
2022-08-20T22:40:57.080Z,94764.63
2022-08-20T22:42:55.458Z,94768.88
2022-08-20T22:44:53.660Z,94760.44
2022-08-20T22:46:55.909Z,94763.69
2022-08-20T22:48:54.408Z,94758.34
2022-08-20T22:50:53.613Z,94762.41
2022-08-20T22:52:54.122Z,94767.16
2022-08-20T22:54:52.858Z,94762.06
2022-08-20T22:56:52.897Z,94752.91
2022-08-20T22:58:51.301Z,94761.31
2022-08-20T23:00:51.062Z,94749.47
2022-08-20T23:02:54.390Z,94761.25
2022-08-20T23:04:53.115Z,94753.34
2022-08-20T23:06:51.384Z,94749.66
2022-08-20T23:08:51.022Z,94743.41
2022-08-20T23:10:49.978Z,94742.31
2022-08-20T23:12:49.790Z,94738.75
2022-08-20T23:14:48.158Z,94727.47
2022-08-20T23:16:48.467Z,94728.28
2022-08-20T23:18:46.883Z,94738.69
2022-08-20T23:20:52.390Z,94727.59
2022-08-20T23:22:50.789Z,94732.63
2022-08-20T23:24:57.331Z,94729.16
2022-08-20T23:26:58.743Z,94732.25
2022-08-20T23:28:57.024Z,94736.69
2022-08-20T23:30:55.379Z,94740.53
2022-08-20T23:32:54.424Z,94730.03
2022-08-20T23:34:52.691Z,94733.00
2022-08-20T23:36:52.467Z,94717.72
2022-08-20T23:38:50.843Z,94715.25
2022-08-20T23:40:50.431Z,94714.88
2022-08-20T23:42:48.778Z,94721.09
2022-08-20T23:44:47.097Z,94720.06
2022-08-20T23:46:45.529Z,94725.59